Time;durP1;ratioP1;P1;durP2;ratioP2;P2;SDS_P1;SDS_P2;PMS_P1;PMS_P2;Temp;Humidity;BMP_temperature;BMP_pressure;BME280_temperature;BME280_humidity;BME280_pressure;Samples;Min_cycle;Max_cycle;Signal;HPM_P1;HPM_P2
2022/03/14 00:02:21;;;;;;;33.60;30.70;;;;;;;21.75;23.69;96233.44;6095893;28;103045;-56
2022/03/14 00:05:31;;;;;;;32.73;29.93;;;;;;;21.73;23.60;96233.69;6084947;28;102650;-56
2022/03/14 00:08:33;;;;;;;33.57;30.57;;;;;;;21.75;23.27;96231.56;6106664;28;103782;-56
2022/03/14 00:11:38;;;;;;;31.17;28.40;;;;;;;21.74;23.71;96235.28;6108622;28;103276;-57
2022/03/14 00:14:40;;;;;;;32.80;30.00;;;;;;;21.75;23.42;96236.09;6103701;28;103243;-55
2022/03/14 00:17:47;;;;;;;31.00;28.30;;;;;;;21.75;23.45;96236.88;6108784;28;104000;-57
2022/03/14 00:20:49;;;;;;;31.83;29.03;;;;;;;21.74;23.35;96237.94;6108330;28;103820;-56
2022/03/14 00:23:55;;;;;;;31.23;28.60;;;;;;;21.75;23.42;96246.72;6103951;28;103217;-56
2022/03/14 00:26:58;;;;;;;31.63;28.93;;;;;;;21.73;23.34;96236.34;6112249;28;104125;-55
2022/03/14 00:30:00;;;;;;;31.00;28.40;;;;;;;21.74;23.41;96240.59;6112605;28;104082;-57
2022/03/14 00:33:02;;;;;;;30.37;27.77;;;;;;;21.73;23.38;96239.00;6111402;28;103600;-55
2022/03/14 00:36:04;;;;;;;31.27;28.50;;;;;;;21.74;23.44;96245.13;6107505;28;104047;-56
2022/03/14 00:39:06;;;;;;;30.87;28.17;;;;;;;21.74;23.19;96248.59;6112610;28;103381;-56
2022/03/14 00:42:08;;;;;;;31.00;28.40;;;;;;;21.73;23.07;96249.66;6112105;28;103446;-56
2022/03/14 00:45:10;;;;;;;31.47;28.77;;;;;;;21.74;23.29;96245.13;6107459;28;103305;-56
2022/03/14 00:48:12;;;;;;;30.60;28.00;;;;;;;21.75;23.32;96254.69;6111389;28;103618;-55
2022/03/14 00:51:14;;;;;;;30.50;27.90;;;;;;;21.68;23.18;96241.69;6112070;28;103289;-56
2022/03/14 00:54:15;;;;;;;30.13;27.63;;;;;;;21.75;23.37;96262.69;6112602;28;103941;-56
2022/03/14 00:57:17;;;;;;;31.67;28.97;;;;;;;21.75;23.10;96263.47;6105596;28;104016;-56
2022/03/14 01:00:19;;;;;;;31.20;28.60;;;;;;;21.75;23.39;96257.38;6112380;28;103553;-57
2022/03/14 01:03:21;;;;;;;30.40;27.80;;;;;;;21.76;23.16;96253.63;6110020;28;103194;-57
2022/03/14 01:06:23;;;;;;;31.60;29.00;;;;;;;21.75;23.16;96260.03;6111909;28;103194;-57
2022/03/14 01:09:25;;;;;;;29.97;27.50;;;;;;;21.74;23.02;96256.56;6106394;28;104127;-57
2022/03/14 01:12:27;;;;;;;30.00;27.30;;;;;;;21.73;23.05;96265.63;6125877;28;103351;-57
2022/03/14 01:15:30;;;;;;;30.13;27.63;;;;;;;21.71;22.93;96265.09;6111739;28;103115;-57
2022/03/14 01:18:32;;;;;;;31.93;29.30;;;;;;;21.74;22.94;96266.41;6105082;28;103720;-57
2022/03/14 01:21:37;;;;;;;31.37;28.67;;;;;;;21.72;22.97;96273.88;6111565;28;103011;-57
2022/03/14 01:24:40;;;;;;;30.07;27.47;;;;;;;21.74;23.11;96274.38;6111029;28;104109;-57
2022/03/14 01:27:42;;;;;;;29.23;26.73;;;;;;;21.74;22.82;96277.06;6110489;28;103138;-57
2022/03/14 01:30:44;;;;;;;29.20;26.80;;;;;;;21.74;23.00;96283.16;6105838;28;103384;-57
2022/03/14 01:33:46;;;;;;;30.40;27.87;;;;;;;21.75;22.92;96266.13;6110602;28;104339;-57
2022/03/14 01:36:48;;;;;;;30.93;28.27;;;;;;;21.75;23.03;96265.34;6110917;28;103156;-57
2022/03/14 01:39:49;;;;;;;29.43;27.00;;;;;;;21.76;23.11;96273.06;6111369;28;104272;-57
2022/03/14 01:42:52;;;;;;;29.10;26.60;;;;;;;21.76;22.95;96277.56;6105600;28;104409;-57
2022/03/14 01:45:57;;;;;;;30.97;28.40;;;;;;;21.75;22.90;96281.31;6101715;28;103478;-57
2022/03/14 01:49:00;;;;;;;29.50;27.10;;;;;;;21.75;23.25;96290.09;6110633;28;103276;-57
2022/03/14 01:52:05;;;;;;;31.20;28.50;;;;;;;21.74;22.90;96283.16;6105381;28;103924;-57
2022/03/14 01:55:08;;;;;;;31.10;28.50;;;;;;;21.72;23.01;96282.63;6110781;28;105413;-57
2022/03/14 01:58:09;;;;;;;30.47;27.90;;;;;;;21.72;23.09;96287.97;6110395;28;103257;-57
2022/03/14 02:01:11;;;;;;;30.37;27.80;;;;;;;21.73;22.88;96291.41;6110303;28;103050;-57
2022/03/14 02:04:14;;;;;;;32.40;29.80;;;;;;;21.74;23.08;96295.66;6104342;28;106029;-57
2022/03/14 02:07:16;;;;;;;32.23;29.53;;;;;;;21.72;22.81;96303.91;6110289;28;103063;-57
2022/03/14 02:10:17;;;;;;;31.87;29.27;;;;;;;21.72;22.88;96306.56;6110045;28;103200;-57
2022/03/14 02:13:19;;;;;;;30.00;27.50;;;;;;;21.73;22.96;96297.53;6105669;28;103032;-57
2022/03/14 02:16:21;;;;;;;31.03;28.53;;;;;;;21.72;22.93;96306.56;6111019;28;103630;-57
2022/03/14 02:19:23;;;;;;;31.47;28.87;;;;;;;21.70;22.94;96305.25;6109887;28;103013;-57
2022/03/14 02:22:25;;;;;;;31.77;29.07;;;;;;;21.71;22.68;96306.84;6110226;28;102783;-57
2022/03/14 02:25:27;;;;;;;30.13;27.60;;;;;;;21.71;22.95;96314.81;6104692;28;103002;-57
2022/03/14 02:28:29;;;;;;;30.50;27.90;;;;;;;21.70;22.78;96324.66;6110020;28;103303;-57
2022/03/14 02:31:30;;;;;;;28.80;26.40;;;;;;;21.69;22.78;96319.63;6110431;28;103189;-56
2022/03/14 02:34:33;;;;;;;30.87;28.30;;;;;;;21.69;22.86;96332.91;6109534;28;103633;-57
2022/03/14 02:37:36;;;;;;;30.23;27.73;;;;;;;21.69;22.58;96331.06;6104684;28;103302;-57
2022/03/14 02:40:41;;;;;;;31.23;28.53;;;;;;;21.68;22.59;96326.78;6109129;28;104330;-58
2022/03/14 02:43:43;;;;;;;29.50;26.90;;;;;;;21.68;22.85;96336.63;6109834;28;103264;-57
2022/03/14 02:46:45;;;;;;;29.90;27.50;;;;;;;21.67;22.95;96338.50;6103687;28;103868;-57
2022/03/14 02:49:46;;;;;;;28.73;26.40;;;;;;;21.67;22.80;96341.16;6110307;28;103440;-57
2022/03/14 02:52:48;;;;;;;28.87;26.47;;;;;;;21.67;22.97;96348.31;6110376;28;104450;-57
2022/03/14 02:55:50;;;;;;;28.90;26.40;;;;;;;21.66;22.77;96352.84;6109808;28;104351;-57
2022/03/14 02:58:52;;;;;;;28.17;25.87;;;;;;;21.67;22.68;96350.97;6105168;28;104269;-57
2022/03/14 03:01:54;;;;;;;26.80;24.60;;;;;;;21.65;22.62;96348.56;6108343;28;103357;-62
2022/03/14 03:04:57;;;;;;;25.80;23.73;;;;;;;21.67;22.93;96359.78;6109363;28;103874;-57
2022/03/14 03:08:03;;;;;;;25.20;23.20;;;;;;;21.67;22.68;96362.44;6109330;28;104254;-57
2022/03/14 03:11:08;;;;;;;25.23;23.20;;;;;;;21.65;22.53;96361.06;6104597;28;103277;-57
2022/03/14 03:14:10;;;;;;;22.87;21.07;;;;;;;21.65;22.65;96366.41;6110235;28;104830;-57
2022/03/14 03:17:12;;;;;;;26.27;24.10;;;;;;;21.68;22.77;96360.56;6109835;28;104096;-57
2022/03/14 03:20:14;;;;;;;24.13;22.13;;;;;;;21.68;22.67;96366.69;6105268;28;103133;-57
2022/03/14 03:23:16;;;;;;;23.53;21.53;;;;;;;21.67;22.54;96370.41;6109291;28;103181;-57
2022/03/14 03:26:19;;;;;;;21.47;19.73;;;;;;;21.67;22.50;96370.41;6108827;28;104270;-57
2022/03/14 03:29:22;;;;;;;21.00;19.40;;;;;;;21.67;22.95;96369.59;6109281;28;103323;-57
2022/03/14 03:32:24;;;;;;;20.30;18.70;;;;;;;21.64;22.85;96373.59;6103140;28;103016;-56
2022/03/14 03:35:26;;;;;;;20.40;18.70;;;;;;;21.67;22.68;96374.91;6109116;28;104087;-57
2022/03/14 03:38:28;;;;;;;21.30;19.50;;;;;;;21.66;22.54;96375.97;6109257;28;104082;-57
2022/03/14 03:41:30;;;;;;;19.80;18.20;;;;;;;21.66;22.54;96378.63;6104336;28;104061;-57
2022/03/14 03:44:32;;;;;;;19.00;17.50;;;;;;;21.65;22.50;96388.47;6108947;28;103480;-57
2022/03/14 03:47:34;;;;;;;18.03;16.60;;;;;;;21.64;22.62;96389.53;6094597;28;104027;-57
2022/03/14 03:50:36;;;;;;;18.30;16.60;;;;;;;21.66;22.76;96391.94;6109776;28;104729;-57
2022/03/14 03:53:38;;;;;;;18.00;16.50;;;;;;;21.61;22.66;96393.53;6104094;28;103401;-57
2022/03/14 03:56:40;;;;;;;17.17;15.77;;;;;;;21.64;22.41;96405.50;6108945;28;104150;-57
2022/03/14 03:59:42;;;;;;;17.10;15.80;;;;;;;21.63;22.31;96398.59;6123808;28;103292;-57
2022/03/14 04:02:44;;;;;;;17.03;15.63;;;;;;;21.62;22.28;96405.75;6118429;28;104065;-57
2022/03/14 04:05:47;;;;;;;15.80;14.60;;;;;;;21.56;22.75;96409.47;6108449;28;103222;-57
2022/03/14 04:08:49;;;;;;;16.47;15.13;;;;;;;21.56;22.76;96406.81;6112615;28;103258;-57
2022/03/14 04:11:51;;;;;;;15.10;13.80;;;;;;;21.53;22.74;96410.00;6115130;28;103223;-57
2022/03/14 04:14:55;;;;;;;14.20;13.10;;;;;;;21.54;22.74;96416.13;6110260;28;103604;-57
2022/03/14 04:17:57;;;;;;;14.03;12.90;;;;;;;21.56;22.76;96428.09;6112789;28;103350;-57
2022/03/14 04:21:00;;;;;;;13.20;12.17;;;;;;;21.58;22.46;96427.84;6114524;28;103090;-57
2022/03/14 04:24:06;;;;;;;12.00;11.00;;;;;;;21.56;22.88;96419.31;6116947;28;103312;-57
2022/03/14 04:27:08;;;;;;;11.97;11.00;;;;;;;21.58;22.95;96427.84;6123749;28;104282;-58
2022/03/14 04:30:11;;;;;;;10.37;9.50;;;;;;;21.59;23.16;96440.06;6117789;28;104212;-57
2022/03/14 04:33:12;;;;;;;11.10;10.00;;;;;;;21.57;22.98;96428.88;6127844;28;103127;-57
2022/03/14 04:36:15;;;;;;;11.33;10.43;;;;;;;21.59;23.21;96442.72;6135405;28;104161;-57
2022/03/14 04:39:18;;;;;;;10.80;9.80;;;;;;;21.53;23.34;96441.91;6127973;28;103067;-57
2022/03/14 04:42:21;;;;;;;10.13;9.40;;;;;;;21.53;23.07;96451.75;6128522;28;103391;-57
2022/03/14 04:45:23;;;;;;;9.90;9.10;;;;;;;21.55;23.17;96450.44;6115843;28;103994;-58
2022/03/14 04:48:25;;;;;;;12.30;10.73;;;;;;;21.13;22.33;96458.44;6106857;28;104393;-55
2022/03/14 04:51:27;;;;;;;10.90;9.90;;;;;;;20.72;21.19;96460.88;6111904;28;102925;-55
2022/03/14 04:54:29;;;;;;;10.50;9.67;;;;;;;20.21;20.58;96466.81;6112049;28;103071;-54
2022/03/14 04:57:31;;;;;;;11.53;10.47;;;;;;;20.05;20.37;96471.97;6111298;28;104003;-58
2022/03/14 05:00:34;;;;;;;12.10;11.10;;;;;;;20.43;20.98;96478.16;6094802;28;103288;-62
2022/03/14 05:03:37;;;;;;;11.43;9.83;;;;;;;20.66;21.89;96477.03;6108472;28;105380;-58
2022/03/14 05:06:40;;;;;;;9.50;8.70;;;;;;;21.13;22.76;96485.03;6107644;28;103749;-58
2022/03/14 05:09:42;;;;;;;9.40;8.60;;;;;;;21.41;22.55;96496.38;6102810;28;103241;-58
2022/03/14 05:12:44;;;;;;;9.70;8.80;;;;;;;21.57;22.74;96506.00;6109814;28;103537;-58
2022/03/14 05:15:46;;;;;;;9.43;8.70;;;;;;;21.66;22.97;96504.44;6109578;28;104216;-58
2022/03/14 05:18:48;;;;;;;8.50;7.80;;;;;;;21.74;23.10;96517.25;6109260;28;103665;-57
2022/03/14 05:21:49;;;;;;;10.40;8.63;;;;;;;21.74;23.53;96519.91;6106097;28;103818;-57
2022/03/14 05:24:51;;;;;;;8.73;8.03;;;;;;;21.66;23.74;96517.75;6108875;28;104203;-58
2022/03/14 05:27:56;;;;;;;9.33;8.53;;;;;;;21.65;23.88;96524.13;6112297;28;104108;-58
2022/03/14 05:30:59;;;;;;;8.73;8.03;;;;;;;21.68;24.00;96526.28;6111405;28;103224;-58
2022/03/14 05:34:00;;;;;;;9.83;8.83;;;;;;;21.71;24.00;96530.28;6103996;28;102933;-58
2022/03/14 05:37:02;;;;;;;9.13;8.43;;;;;;;21.72;24.07;96534.53;6108223;28;103413;-58
2022/03/14 05:40:06;;;;;;;10.77;8.87;;;;;;;21.73;24.41;96534.28;6107541;28;103387;-58
2022/03/14 05:43:10;;;;;;;9.17;8.40;;;;;;;21.75;24.11;96536.69;6102880;28;104254;-58
2022/03/14 05:46:11;;;;;;;9.30;8.50;;;;;;;21.75;24.11;96537.47;6109403;28;103163;-58
2022/03/14 05:49:13;;;;;;;9.80;9.00;;;;;;;21.76;24.13;96541.72;6111933;28;104333;-58
2022/03/14 05:52:16;;;;;;;9.93;9.03;;;;;;;21.78;24.31;96536.94;6109858;28;104707;-58
2022/03/14 05:55:17;;;;;;;10.30;9.40;;;;;;;21.79;24.30;96535.88;6105970;28;103054;-57
2022/03/14 05:58:19;;;;;;;9.90;9.10;;;;;;;21.81;24.35;96544.41;6111805;28;103513;-58
2022/03/14 06:01:22;;;;;;;10.03;9.23;;;;;;;21.79;24.51;96549.19;6110665;28;102745;-57
2022/03/14 06:04:24;;;;;;;9.67;8.90;;;;;;;21.73;24.15;96550.25;6111971;28;103652;-57
2022/03/14 06:07:26;;;;;;;9.53;8.83;;;;;;;21.69;24.24;96546.50;6104896;28;104465;-57
2022/03/14 06:10:27;;;;;;;10.80;9.87;;;;;;;21.68;24.05;96549.44;6111360;28;104050;-57
2022/03/14 06:13:29;;;;;;;10.40;9.43;;;;;;;21.69;23.98;96561.66;6111347;28;103838;-56
2022/03/14 06:16:31;;;;;;;10.10;9.20;;;;;;;21.70;23.84;96560.59;6106055;28;104997;-57
2022/03/14 06:19:33;;;;;;;11.07;10.07;;;;;;;21.71;24.07;96559.53;6110934;28;103347;-57
2022/03/14 06:22:38;;;;;;;10.17;9.30;;;;;;;21.74;23.64;96565.13;6109732;28;102968;-57
2022/03/14 06:25:40;;;;;;;9.83;9.03;;;;;;;21.80;23.67;96564.09;6110704;28;103213;-57
2022/03/14 06:28:42;;;;;;;9.37;8.53;;;;;;;21.86;23.51;96571.06;6105697;28;104065;-57
2022/03/14 06:31:44;;;;;;;10.40;9.50;;;;;;;21.94;23.26;96572.41;6110947;28;103073;-57
2022/03/14 06:34:46;;;;;;;9.93;9.13;;;;;;;22.03;23.21;96578.03;6110958;28;102997;-57
2022/03/14 06:37:49;;;;;;;9.90;9.10;;;;;;;22.10;22.92;96583.94;6104704;28;103110;-57
2022/03/14 06:40:51;;;;;;;10.73;9.83;;;;;;;22.16;22.86;96588.19;6110166;28;104067;-58
2022/03/14 06:43:56;;;;;;;12.77;11.73;;;;;;;22.24;22.95;96592.22;6110039;28;103985;-57
2022/03/14 06:46:58;;;;;;;12.50;11.50;;;;;;;22.37;22.90;96594.41;6110351;28;103113;-58
2022/03/14 06:50:00;;;;;;;12.23;11.33;;;;;;;22.45;23.25;96594.69;6105192;28;104467;-57
2022/03/14 06:53:01;;;;;;;13.40;12.20;;;;;;;22.49;22.60;96593.09;6110345;28;104046;-57
2022/03/14 06:56:03;;;;;;;12.80;11.80;;;;;;;22.51;22.86;96598.16;6110281;28;103036;-57
2022/03/14 06:59:05;;;;;;;13.27;12.10;;;;;;;22.54;22.98;96597.63;6109777;28;103198;-57
2022/03/14 07:02:07;;;;;;;13.90;12.60;;;;;;;22.56;23.01;96597.38;6102869;28;103416;-57
2022/03/14 07:05:17;;;;;;;13.40;12.23;;;;;;;22.58;22.92;96598.72;6110639;28;104172;-58
2022/03/14 07:08:20;;;;;;;14.00;12.73;;;;;;;22.63;22.90;96600.56;6109019;28;104278;-58
2022/03/14 07:11:21;;;;;;;13.40;12.30;;;;;;;22.65;23.06;96607.22;6104449;28;102802;-57
2022/03/14 07:14:23;;;;;;;13.90;12.80;;;;;;;22.69;22.87;96604.84;6109854;28;103113;-57
2022/03/14 07:17:25;;;;;;;14.90;13.50;;;;;;;22.71;22.79;96611.53;6110215;28;102960;-57
2022/03/14 07:20:27;;;;;;;15.20;13.90;;;;;;;22.85;23.21;96608.38;6109944;28;103411;-57
2022/03/14 07:23:29;;;;;;;13.90;12.80;;;;;;;22.93;23.43;96613.97;6104555;28;104100;-57
2022/03/14 07:26:31;;;;;;;14.07;12.67;;;;;;;22.96;23.24;96610.75;6110137;28;103787;-57
2022/03/14 07:29:33;;;;;;;15.00;13.70;;;;;;;22.99;23.09;96615.56;6109543;28;103141;-58
2022/03/14 07:32:35;;;;;;;15.20;13.70;;;;;;;23.00;23.00;96611.03;6107685;28;102886;-57
2022/03/14 07:35:37;;;;;;;15.00;13.60;;;;;;;22.97;23.18;96615.03;6115466;28;106854;-58
2022/03/14 07:38:39;;;;;;;15.27;13.97;;;;;;;22.97;23.11;96624.88;6116592;28;103197;-58
2022/03/14 07:41:41;;;;;;;16.17;14.77;;;;;;;22.97;23.15;96612.34;6116104;28;102979;-58
2022/03/14 07:44:43;;;;;;;15.07;13.77;;;;;;;22.98;22.94;96618.47;6112082;28;103287;-57
2022/03/14 07:47:45;;;;;;;16.17;14.67;;;;;;;22.98;22.89;96619.28;6117959;28;104390;-58
2022/03/14 07:50:47;;;;;;;15.97;14.57;;;;;;;23.03;22.84;96613.97;6116471;28;102779;-57
2022/03/14 07:53:52;;;;;;;15.30;13.73;;;;;;;23.04;22.88;96617.44;6117620;28;103241;-57
2022/03/14 07:56:54;;;;;;;17.27;15.77;;;;;;;23.06;23.13;96616.09;6110650;28;104197;-58
2022/03/14 07:59:55;;;;;;;16.73;15.33;;;;;;;23.05;22.88;96616.38;6117112;28;104135;-58
2022/03/14 08:02:57;;;;;;;17.03;15.63;;;;;;;23.05;23.21;96611.84;6115733;28;104300;-58
2022/03/14 08:06:00;;;;;;;17.70;16.00;;;;;;;23.08;23.03;96616.63;6112160;28;103276;-56
2022/03/14 08:09:02;;;;;;;16.27;14.83;;;;;;;23.08;22.98;96615.84;6116203;28;103381;-56
2022/03/14 08:12:05;;;;;;;16.50;14.93;;;;;;;23.07;23.33;96608.91;6116798;28;102698;-56
2022/03/14 08:15:08;;;;;;;16.13;14.83;;;;;;;23.07;23.06;96617.69;6117157;28;103886;-56
2022/03/14 08:18:10;;;;;;;16.30;14.90;;;;;;;23.08;23.14;96610.50;6111227;28;103095;-55
2022/03/14 08:21:12;;;;;;;15.80;14.43;;;;;;;23.09;22.66;96612.91;6116383;28;103100;-55
2022/03/14 08:24:14;;;;;;;16.43;15.10;;;;;;;23.09;23.16;96618.22;6117165;28;103978;-55
2022/03/14 08:27:16;;;;;;;16.60;15.20;;;;;;;23.05;22.65;96606.50;6116702;28;103324;-56
2022/03/14 08:30:23;;;;;;;16.63;15.03;;;;;;;23.11;23.15;96616.09;6112163;28;104173;-55
2022/03/14 08:33:27;;;;;;;16.53;15.10;;;;;;;23.13;23.07;96613.16;6130871;28;102812;-56
2022/03/14 08:36:29;;;;;;;16.47;14.90;;;;;;;23.13;22.72;96618.50;6117034;28;103129;-44
2022/03/14 08:39:33;;;;;;;15.73;14.30;;;;;;;23.15;23.14;96612.88;6110393;28;103276;-44
2022/03/14 08:42:38;;;;;;;15.97;14.60;;;;;;;23.15;23.16;96612.88;6117097;28;104317;-45
2022/03/14 08:45:43;;;;;;;16.33;15.03;;;;;;;23.15;22.67;96620.88;6113715;28;103759;-45
2022/03/14 08:48:45;;;;;;;15.80;14.50;;;;;;;23.15;23.06;96618.22;6112774;28;104030;-44
2022/03/14 08:51:47;;;;;;;15.47;14.07;;;;;;;23.14;23.07;96621.97;6106755;28;103673;-45
2022/03/14 08:54:49;;;;;;;15.10;13.87;;;;;;;23.14;22.54;96619.28;6112568;28;103272;-44
2022/03/14 08:57:51;;;;;;;16.07;14.67;;;;;;;23.14;22.68;96613.97;6112013;28;103143;-44
2022/03/14 09:00:52;;;;;;;15.53;14.23;;;;;;;23.13;22.73;96612.34;6107319;28;104123;-44
2022/03/14 09:03:54;;;;;;;15.00;13.70;;;;;;;23.11;22.83;96610.75;6112730;28;103284;-44
2022/03/14 09:06:56;;;;;;;15.23;13.83;;;;;;;23.10;22.76;96608.38;6113217;28;104150;-45
2022/03/14 09:10:07;;;;;;;14.70;13.40;;;;;;;23.07;22.71;96607.03;6110400;28;103764;-49
2022/03/14 09:13:08;;;;;;;14.87;13.60;;;;;;;23.06;22.87;96597.44;6106973;28;104047;-45
2022/03/14 09:16:10;;;;;;;15.90;14.57;;;;;;;23.04;22.99;96599.59;6112335;28;103058;-44
2022/03/14 09:19:13;;;;;;;15.37;14.17;;;;;;;23.04;22.96;96598.78;6111585;28;103403;-45
2022/03/14 09:22:16;;;;;;;15.00;13.80;;;;;;;23.03;23.02;96599.84;6112403;28;103335;-45
2022/03/14 09:25:19;;;;;;;15.00;13.70;;;;;;;23.02;22.82;96593.72;6107463;28;104088;-45
2022/03/14 09:28:21;;;;;;;13.93;12.70;;;;;;;23.02;23.16;96595.59;6111846;28;103321;-45
2022/03/14 09:31:23;;;;;;;13.40;12.30;;;;;;;23.02;22.91;96598.25;6112249;28;104086;-44
2022/03/14 09:34:25;;;;;;;13.67;12.47;;;;;;;23.01;23.04;96589.47;6106448;28;103100;-44
2022/03/14 09:37:27;;;;;;;13.83;12.63;;;;;;;23.01;22.81;96588.63;6111378;28;103494;-45
2022/03/14 09:40:31;;;;;;;13.50;12.20;;;;;;;22.99;23.23;96593.44;6110844;28;103015;-44
2022/03/14 09:43:38;;;;;;;12.13;11.03;;;;;;;22.98;22.80;96589.97;6111671;28;104157;-45
2022/03/14 09:46:42;;;;;;;12.80;11.80;;;;;;;22.97;22.97;96593.69;6106670;28;103670;-45
2022/03/14 09:49:46;;;;;;;12.90;11.80;;;;;;;22.96;23.21;96596.63;6111227;28;103157;-44
2022/03/14 09:52:49;;;;;;;12.57;11.37;;;;;;;22.97;23.40;96603.56;6111406;28;103027;-44
2022/03/14 09:55:51;;;;;;;11.97;10.97;;;;;;;22.95;23.00;96598.50;6121030;28;103764;-44
2022/03/14 09:58:52;;;;;;;11.97;10.97;;;;;;;22.94;23.37;96591.56;6110474;28;103607;-44
2022/03/14 10:01:55;;;;;;;12.13;11.17;;;;;;;22.96;23.42;96600.09;6111184;28;103564;-44
2022/03/14 10:04:58;;;;;;;11.80;10.67;;;;;;;22.95;23.17;96601.16;6111540;28;103269;-44
2022/03/14 10:08:00;;;;;;;12.10;11.00;;;;;;;22.94;23.11;96593.44;6105676;28;104481;-45
2022/03/14 10:11:02;;;;;;;11.63;10.60;;;;;;;22.92;23.43;96598.25;6110324;28;104152;-45
2022/03/14 10:14:19;;;;;;;10.57;9.67;;;;;;;22.92;23.06;96595.56;6111726;28;104227;-44
2022/03/14 10:17:21;;;;;;;11.00;10.07;;;;;;;22.89;23.25;96588.91;6111171;28;104039;-44
2022/03/14 10:20:25;;;;;;;10.83;10.00;;;;;;;22.88;23.00;96584.66;6105359;28;103299;-44
2022/03/14 10:23:33;;;;;;;11.03;10.13;;;;;;;22.86;23.48;96589.44;6110961;28;103098;-44
2022/03/14 10:26:37;;;;;;;10.00;9.20;;;;;;;22.84;23.03;96583.56;6110833;28;104195;-44
2022/03/14 10:29:42;;;;;;;9.50;8.80;;;;;;;22.84;23.15;96583.56;6106245;28;106548;-44
2022/03/14 10:32:44;;;;;;;9.67;8.87;;;;;;;22.82;23.60;96583.03;6110569;28;103150;-44
2022/03/14 10:35:47;;;;;;;8.87;8.17;;;;;;;22.80;23.09;96583.28;6110920;28;103070;-44
2022/03/14 10:38:50;;;;;;;9.73;8.93;;;;;;;22.80;23.10;96590.47;6110987;28;103091;-44
2022/03/14 10:42:12;;;;;;;9.57;8.77;;;;;;;22.77;23.44;96577.69;6103844;28;103982;-44
2022/03/14 10:45:20;;;;;;;10.00;9.10;;;;;;;22.75;23.10;96579.81;6111012;28;104450;-44
2022/03/14 10:48:33;;;;;;;9.30;8.50;;;;;;;22.74;23.20;96575.53;6110473;28;104099;-44
2022/03/14 10:51:57;;;;;;;8.87;8.13;;;;;;;22.73;23.36;96580.06;6103877;28;104023;-43
2022/03/14 10:54:59;;;;;;;9.00;8.30;;;;;;;22.78;23.49;96571.28;6110409;28;104112;-43
2022/03/14 10:58:09;;;;;;;8.47;7.77;;;;;;;22.80;22.91;96571.81;6110579;28;103065;-42
2022/03/14 11:01:12;;;;;;;9.27;8.40;;;;;;;22.79;23.06;96568.34;6110262;28;104041;-43
2022/03/14 11:04:14;;;;;;;8.67;7.97;;;;;;;22.79;23.16;96568.34;6104406;28;102995;-43
2022/03/14 11:07:19;;;;;;;8.13;7.47;;;;;;;22.78;23.26;96574.75;6110013;28;103343;-42
2022/03/14 11:10:37;;;;;;;8.80;8.10;;;;;;;22.76;22.92;96571.53;6109893;28;103142;-42
2022/03/14 11:13:43;;;;;;;9.27;8.47;;;;;;;22.76;23.04;96568.88;6104758;28;104254;-43
2022/03/14 11:16:45;;;;;;;8.80;8.03;;;;;;;22.73;23.21;96565.97;6110528;28;104256;-43
2022/03/14 11:19:48;;;;;;;7.70;7.10;;;;;;;22.72;23.16;96570.50;6110000;28;103413;-42
2022/03/14 11:22:51;;;;;;;7.40;6.80;;;;;;;22.69;23.09;96565.69;6109939;28;103548;-43
2022/03/14 11:25:53;;;;;;;7.50;7.00;;;;;;;22.68;22.95;96569.44;6104711;28;103318;-43
2022/03/14 11:28:56;;;;;;;8.20;7.50;;;;;;;22.65;22.88;96561.13;6109489;28;103065;-42
2022/03/14 11:31:58;;;;;;;7.47;6.87;;;;;;;22.64;23.00;96567.53;6109491;28;104211;-43
2022/03/14 11:35:20;;;;;;;8.00;7.37;;;;;;;22.62;22.72;96564.34;6104871;28;105164;-43
2022/03/14 11:38:22;;;;;;;8.20;7.50;;;;;;;22.58;22.87;96557.94;6109701;28;102854;-43
2022/03/14 11:41:25;;;;;;;7.90;7.20;;;;;;;22.57;23.06;96553.69;6109701;28;104335;-42
2022/03/14 11:44:27;;;;;;;8.03;7.33;;;;;;;22.54;22.96;96555.03;6108904;28;103207;-43
2022/03/14 11:47:29;;;;;;;8.03;7.33;;;;;;;22.50;23.06;96549.41;6104485;28;103047;-43
2022/03/14 11:50:58;;;;;;;7.60;7.00;;;;;;;22.48;22.98;96546.22;6124205;28;104138;-43
2022/03/14 11:54:09;;;;;;;7.40;6.67;;;;;;;22.46;22.88;96543.00;6108357;28;104061;-42
2022/03/14 11:57:11;;;;;;;8.13;7.33;;;;;;;22.45;23.08;96536.09;6105278;28;104115;-42
2022/03/14 12:00:22;;;;;;;7.77;7.07;;;;;;;22.45;22.97;96537.94;6108914;28;103039;-43
2022/03/14 12:03:37;;;;;;;6.47;6.07;;;;;;;22.42;22.90;96539.28;6108574;28;103961;-42
2022/03/14 12:06:49;;;;;;;7.37;6.77;;;;;;;22.41;23.28;96527.03;6109651;28;103348;-42
2022/03/14 12:09:51;;;;;;;6.87;6.37;;;;;;;22.40;22.98;96521.97;6103809;28;104074;-42
2022/03/14 12:12:56;;;;;;;6.60;6.10;;;;;;;22.38;23.43;96524.91;6109695;28;103302;-43
2022/03/14 12:15:57;;;;;;;6.60;6.10;;;;;;;22.38;23.18;96516.13;6108471;28;103181;-43
2022/03/14 12:18:59;;;;;;;6.40;5.90;;;;;;;22.36;23.13;96524.38;6104510;28;103128;-43
2022/03/14 12:22:02;;;;;;;6.93;6.33;;;;;;;22.35;23.28;96516.66;6112333;28;104352;-42
2022/03/14 12:25:06;;;;;;;6.30;5.83;;;;;;;22.31;23.24;96516.34;6112797;28;104148;-43
2022/03/14 12:28:29;;;;;;;6.20;5.73;;;;;;;22.30;23.36;96506.78;6113623;28;104022;-42
2022/03/14 12:31:31;;;;;;;6.63;6.13;;;;;;;22.29;23.37;96505.19;6108012;28;104066;-42
2022/03/14 12:34:33;;;;;;;7.23;6.63;;;;;;;22.28;23.30;96511.56;6113084;28;103199;-42
2022/03/14 12:37:39;;;;;;;6.60;6.10;;;;;;;22.27;23.42;96506.50;6113164;28;104114;-43
2022/03/14 12:40:43;;;;;;;6.27;5.67;;;;;;;22.26;23.52;96503.03;6113080;28;104087;-42
2022/03/14 12:43:45;;;;;;;6.10;5.70;;;;;;;22.26;23.58;96508.38;6107819;28;103309;-43
2022/03/14 12:46:48;;;;;;;6.50;6.00;;;;;;;22.25;23.47;96503.31;6111835;28;103105;-43
2022/03/14 12:49:51;;;;;;;6.90;6.30;;;;;;;22.24;23.25;96502.50;6112402;28;103845;-42
2022/03/14 12:53:01;;;;;;;6.13;5.63;;;;;;;22.19;23.37;96505.97;6107004;28;103908;-43
2022/03/14 12:56:14;;;;;;;6.33;5.83;;;;;;;22.20;23.36;96502.25;6112217;28;103138;-43
2022/03/14 12:59:17;;;;;;;7.13;6.53;;;;;;;22.21;23.28;96497.72;6112576;28;104094;-42
2022/03/14 13:02:25;;;;;;;6.37;5.87;;;;;;;22.18;23.18;96491.06;6112255;28;103756;-42
2022/03/14 13:05:28;;;;;;;6.47;5.97;;;;;;;22.16;23.46;96493.16;6106890;28;103148;-43
2022/03/14 13:08:30;;;;;;;6.07;5.57;;;;;;;22.17;23.33;96500.13;6112456;28;104027;-43
2022/03/14 13:11:38;;;;;;;6.50;6.00;;;;;;;22.16;23.36;96503.03;6112622;28;103012;-42
2022/03/14 13:14:43;;;;;;;6.23;5.73;;;;;;;22.14;23.51;96500.63;6106337;28;104069;-42
2022/03/14 13:17:46;;;;;;;5.47;5.07;;;;;;;22.16;23.36;96492.38;6111471;28;103501;-43
2022/03/14 13:20:48;;;;;;;6.23;5.80;;;;;;;22.15;23.33;96496.09;6112127;28;104176;-42
2022/03/14 13:24:11;;;;;;;6.87;6.30;;;;;;;22.19;23.61;96499.84;6112348;28;103142;-47
2022/03/14 13:27:23;;;;;;;6.70;6.20;;;;;;;22.19;23.78;96492.66;6108435;28;104479;-42
2022/03/14 13:30:38;;;;;;;6.67;6.17;;;;;;;22.17;23.13;96499.28;6111175;28;104165;-42
2022/03/14 13:33:43;;;;;;;6.40;5.90;;;;;;;22.16;23.48;96503.81;6112461;28;103406;-42
2022/03/14 13:36:52;;;;;;;6.77;6.20;;;;;;;22.14;23.47;96494.50;6106549;28;104020;-42
2022/03/14 13:39:54;;;;;;;6.70;6.20;;;;;;;22.12;23.42;96491.31;6111512;28;103233;-42
2022/03/14 13:42:57;;;;;;;6.90;6.40;;;;;;;22.10;23.70;96494.22;6111982;28;103130;-42
2022/03/14 13:46:23;;;;;;;6.53;6.03;;;;;;;22.11;23.37;96487.03;6111392;28;104001;-42
2022/03/14 13:49:30;;;;;;;6.63;6.10;;;;;;;22.08;23.49;96495.56;6105881;28;103975;-43
2022/03/14 13:52:32;;;;;;;6.60;6.10;;;;;;;22.08;23.30;96491.03;6111648;28;103688;-42
2022/03/14 13:55:34;;;;;;;6.40;5.93;;;;;;;22.06;23.20;96485.19;6110924;28;103038;-42
2022/03/14 13:58:36;;;;;;;6.33;5.83;;;;;;;22.07;23.41;96483.31;6106374;28;104873;-43
2022/03/14 14:01:42;;;;;;;6.47;5.87;;;;;;;22.06;23.43;96484.38;6110424;28;103081;-43